sensor_id;sensor_type;location;lat;lon;timestamp;P1;durP1;ratioP1;P2;durP2;ratioP2
78489;SDS011;67776;52.012;4.736;2023-03-11T00:01:13;7.30;;;1.30;;
78489;SDS011;67776;52.012;4.736;2023-03-11T00:03:38;3.67;;;1.10;;
78489;SDS011;67776;52.012;4.736;2023-03-11T00:06:04;4.90;;;1.00;;
78489;SDS011;67776;52.012;4.736;2023-03-11T00:08:30;6.95;;;1.00;;
78489;SDS011;67776;52.012;4.736;2023-03-11T00:10:56;5.27;;;1.00;;
78489;SDS011;67776;52.012;4.736;2023-03-11T00:13:24;7.90;;;1.17;;
78489;SDS011;67776;52.012;4.736;2023-03-11T00:15:50;7.50;;;1.10;;
78489;SDS011;67776;52.012;4.736;2023-03-11T00:18:19;12.80;;;1.20;;
78489;SDS011;67776;52.012;4.736;2023-03-11T00:20:54;5.80;;;0.90;;
78489;SDS011;67776;52.012;4.736;2023-03-11T00:23:20;8.48;;;1.55;;
78489;SDS011;67776;52.012;4.736;2023-03-11T00:25:45;4.25;;;1.00;;
78489;SDS011;67776;52.012;4.736;2023-03-11T00:28:11;7.77;;;0.87;;
78489;SDS011;67776;52.012;4.736;2023-03-11T00:30:38;8.68;;;1.10;;
78489;SDS011;67776;52.012;4.736;2023-03-11T00:33:05;7.93;;;1.40;;
78489;SDS011;67776;52.012;4.736;2023-03-11T00:35:32;5.10;;;0.93;;
78489;SDS011;67776;52.012;4.736;2023-03-11T00:38:00;7.50;;;1.00;;
78489;SDS011;67776;52.012;4.736;2023-03-11T00:40:30;6.15;;;0.93;;
78489;SDS011;67776;52.012;4.736;2023-03-11T00:42:57;9.57;;;1.02;;
78489;SDS011;67776;52.012;4.736;2023-03-11T00:45:23;3.88;;;0.95;;
78489;SDS011;67776;52.012;4.736;2023-03-11T00:47:50;3.60;;;0.80;;
78489;SDS011;67776;52.012;4.736;2023-03-11T00:50:18;3.60;;;0.70;;
78489;SDS011;67776;52.012;4.736;2023-03-11T00:52:45;3.45;;;0.70;;
78489;SDS011;67776;52.012;4.736;2023-03-11T00:55:13;4.60;;;0.82;;
78489;SDS011;67776;52.012;4.736;2023-03-11T00:57:40;7.40;;;0.90;;
78489;SDS011;67776;52.012;4.736;2023-03-11T01:00:05;3.83;;;0.90;;
78489;SDS011;67776;52.012;4.736;2023-03-11T01:02:36;9.05;;;1.30;;
78489;SDS011;67776;52.012;4.736;2023-03-11T01:05:02;3.20;;;0.80;;
78489;SDS011;67776;52.012;4.736;2023-03-11T01:07:27;5.03;;;1.00;;
78489;SDS011;67776;52.012;4.736;2023-03-11T01:09:53;5.23;;;1.00;;
78489;SDS011;67776;52.012;4.736;2023-03-11T01:12:18;4.68;;;0.90;;
78489;SDS011;67776;52.012;4.736;2023-03-11T01:14:46;6.07;;;0.87;;
78489;SDS011;67776;52.012;4.736;2023-03-11T01:17:14;5.10;;;0.97;;
78489;SDS011;67776;52.012;4.736;2023-03-11T01:19:39;6.63;;;1.08;;
78489;SDS011;67776;52.012;4.736;2023-03-11T01:22:05;5.63;;;0.90;;
78489;SDS011;67776;52.012;4.736;2023-03-11T01:24:30;4.80;;;0.90;;
78489;SDS011;67776;52.012;4.736;2023-03-11T01:26:55;4.25;;;0.98;;
78489;SDS011;67776;52.012;4.736;2023-03-11T01:29:21;5.53;;;1.10;;
78489;SDS011;67776;52.012;4.736;2023-03-11T01:31:46;7.67;;;1.30;;
78489;SDS011;67776;52.012;4.736;2023-03-11T01:34:11;6.93;;;1.37;;
78489;SDS011;67776;52.012;4.736;2023-03-11T01:36:37;6.80;;;0.90;;
78489;SDS011;67776;52.012;4.736;2023-03-11T01:39:02;6.60;;;1.03;;
78489;SDS011;67776;52.012;4.736;2023-03-11T01:41:28;4.37;;;0.87;;
78489;SDS011;67776;52.012;4.736;2023-03-11T01:43:53;5.40;;;0.90;;
78489;SDS011;67776;52.012;4.736;2023-03-11T01:46:23;7.53;;;1.00;;
78489;SDS011;67776;52.012;4.736;2023-03-11T01:48:55;4.00;;;0.80;;
78489;SDS011;67776;52.012;4.736;2023-03-11T01:51:36;2.53;;;0.60;;
78489;SDS011;67776;52.012;4.736;2023-03-11T01:54:08;4.97;;;0.70;;
78489;SDS011;67776;52.012;4.736;2023-03-11T01:56:36;5.10;;;0.77;;
78489;SDS011;67776;52.012;4.736;2023-03-11T01:59:03;4.32;;;0.73;;
78489;SDS011;67776;52.012;4.736;2023-03-11T02:01:30;2.53;;;0.63;;
78489;SDS011;67776;52.012;4.736;2023-03-11T02:03:58;3.03;;;0.70;;
78489;SDS011;67776;52.012;4.736;2023-03-11T02:06:26;3.88;;;0.73;;
78489;SDS011;67776;52.012;4.736;2023-03-11T02:08:52;3.72;;;0.65;;
78489;SDS011;67776;52.012;4.736;2023-03-11T02:11:19;3.17;;;0.63;;
78489;SDS011;67776;52.012;4.736;2023-03-11T02:13:49;6.87;;;0.70;;
78489;SDS011;67776;52.012;4.736;2023-03-11T02:16:16;3.47;;;0.70;;
78489;SDS011;67776;52.012;4.736;2023-03-11T02:18:42;6.82;;;1.10;;
78489;SDS011;67776;52.012;4.736;2023-03-11T02:27:02;4.83;;;0.70;;
78489;SDS011;67776;52.012;4.736;2023-03-11T02:29:31;5.75;;;0.70;;
78489;SDS011;67776;52.012;4.736;2023-03-11T02:31:57;5.95;;;1.05;;
78489;SDS011;67776;52.012;4.736;2023-03-11T02:34:26;3.78;;;0.60;;
78489;SDS011;67776;52.012;4.736;2023-03-11T02:36:53;3.53;;;0.70;;
78489;SDS011;67776;52.012;4.736;2023-03-11T02:39:31;4.00;;;0.77;;
78489;SDS011;67776;52.012;4.736;2023-03-11T02:42:03;5.15;;;0.88;;
78489;SDS011;67776;52.012;4.736;2023-03-11T02:44:32;3.67;;;0.60;;
78489;SDS011;67776;52.012;4.736;2023-03-11T02:46:58;7.68;;;0.82;;
78489;SDS011;67776;52.012;4.736;2023-03-11T02:49:25;3.22;;;0.60;;
78489;SDS011;67776;52.012;4.736;2023-03-11T02:51:51;6.32;;;0.93;;
78489;SDS011;67776;52.012;4.736;2023-03-11T02:54:17;3.63;;;0.60;;
78489;SDS011;67776;52.012;4.736;2023-03-11T02:56:42;2.27;;;0.50;;
78489;SDS011;67776;52.012;4.736;2023-03-11T02:59:08;3.57;;;0.60;;
78489;SDS011;67776;52.012;4.736;2023-03-11T03:01:33;4.13;;;0.73;;
78489;SDS011;67776;52.012;4.736;2023-03-11T03:03:58;3.37;;;0.80;;
78489;SDS011;67776;52.012;4.736;2023-03-11T03:06:24;5.23;;;0.70;;
78489;SDS011;67776;52.012;4.736;2023-03-11T03:08:50;3.08;;;0.68;;
78489;SDS011;67776;52.012;4.736;2023-03-11T03:11:15;4.30;;;0.50;;
78489;SDS011;67776;52.012;4.736;2023-03-11T03:13:41;5.03;;;0.70;;
78489;SDS011;67776;52.012;4.736;2023-03-11T03:16:06;4.67;;;0.93;;
78489;SDS011;67776;52.012;4.736;2023-03-11T03:18:31;2.55;;;0.73;;
78489;SDS011;67776;52.012;4.736;2023-03-11T03:20:57;4.00;;;0.80;;
78489;SDS011;67776;52.012;4.736;2023-03-11T03:23:22;5.40;;;0.77;;
78489;SDS011;67776;52.012;4.736;2023-03-11T03:25:48;2.78;;;0.73;;
78489;SDS011;67776;52.012;4.736;2023-03-11T03:28:13;3.03;;;0.70;;
78489;SDS011;67776;52.012;4.736;2023-03-11T03:30:39;3.23;;;0.70;;
78489;SDS011;67776;52.012;4.736;2023-03-11T03:33:05;7.10;;;0.65;;
78489;SDS011;67776;52.012;4.736;2023-03-11T03:35:31;4.80;;;0.70;;
78489;SDS011;67776;52.012;4.736;2023-03-11T03:37:57;3.97;;;0.70;;
78489;SDS011;67776;52.012;4.736;2023-03-11T03:40:26;4.73;;;0.80;;
78489;SDS011;67776;52.012;4.736;2023-03-11T03:42:51;3.47;;;0.70;;
78489;SDS011;67776;52.012;4.736;2023-03-11T03:45:17;6.53;;;0.77;;
78489;SDS011;67776;52.012;4.736;2023-03-11T03:47:42;3.22;;;0.75;;
78489;SDS011;67776;52.012;4.736;2023-03-11T03:50:08;4.27;;;0.87;;
78489;SDS011;67776;52.012;4.736;2023-03-11T03:52:35;5.25;;;1.05;;
78489;SDS011;67776;52.012;4.736;2023-03-11T03:55:01;3.70;;;0.77;;
78489;SDS011;67776;52.012;4.736;2023-03-11T03:57:28;4.00;;;0.80;;
78489;SDS011;67776;52.012;4.736;2023-03-11T03:59:53;4.45;;;0.82;;
78489;SDS011;67776;52.012;4.736;2023-03-11T04:02:19;5.27;;;1.00;;
78489;SDS011;67776;52.012;4.736;2023-03-11T04:04:44;6.32;;;1.10;;
78489;SDS011;67776;52.012;4.736;2023-03-11T04:07:10;3.20;;;0.80;;
78489;SDS011;67776;52.012;4.736;2023-03-11T04:09:38;4.80;;;0.80;;
78489;SDS011;67776;52.012;4.736;2023-03-11T04:12:04;3.43;;;0.73;;
78489;SDS011;67776;52.012;4.736;2023-03-11T04:14:29;4.32;;;0.90;;
78489;SDS011;67776;52.012;4.736;2023-03-11T04:16:55;5.57;;;1.20;;
78489;SDS011;67776;52.012;4.736;2023-03-11T04:19:21;7.43;;;0.80;;
78489;SDS011;67776;52.012;4.736;2023-03-11T04:21:47;3.77;;;0.70;;
78489;SDS011;67776;52.012;4.736;2023-03-11T04:24:12;5.73;;;0.83;;
78489;SDS011;67776;52.012;4.736;2023-03-11T04:26:38;3.80;;;0.80;;
78489;SDS011;67776;52.012;4.736;2023-03-11T04:29:06;4.33;;;0.90;;
78489;SDS011;67776;52.012;4.736;2023-03-11T04:31:31;5.90;;;1.00;;
78489;SDS011;67776;52.012;4.736;2023-03-11T04:33:57;3.77;;;0.80;;
78489;SDS011;67776;52.012;4.736;2023-03-11T04:36:22;5.17;;;0.93;;
78489;SDS011;67776;52.012;4.736;2023-03-11T04:38:47;6.23;;;0.87;;
78489;SDS011;67776;52.012;4.736;2023-03-11T04:41:13;3.33;;;0.70;;
78489;SDS011;67776;52.012;4.736;2023-03-11T04:43:38;4.53;;;0.90;;
78489;SDS011;67776;52.012;4.736;2023-03-11T04:46:03;2.53;;;0.60;;
78489;SDS011;67776;52.012;4.736;2023-03-11T04:48:29;5.28;;;1.10;;
78489;SDS011;67776;52.012;4.736;2023-03-11T04:50:54;5.93;;;1.57;;
78489;SDS011;67776;52.012;4.736;2023-03-11T04:53:20;3.80;;;0.73;;
78489;SDS011;67776;52.012;4.736;2023-03-11T04:55:45;4.35;;;0.82;;
78489;SDS011;67776;52.012;4.736;2023-03-11T04:58:11;6.40;;;0.90;;
78489;SDS011;67776;52.012;4.736;2023-03-11T05:00:37;4.55;;;1.10;;
78489;SDS011;67776;52.012;4.736;2023-03-11T05:03:02;3.27;;;0.80;;
78489;SDS011;67776;52.012;4.736;2023-03-11T05:05:28;4.13;;;1.10;;
78489;SDS011;67776;52.012;4.736;2023-03-11T05:07:54;3.87;;;1.20;;
78489;SDS011;67776;52.012;4.736;2023-03-11T05:10:19;7.47;;;1.00;;
78489;SDS011;67776;52.012;4.736;2023-03-11T05:12:49;4.80;;;1.05;;
78489;SDS011;67776;52.012;4.736;2023-03-11T05:15:15;6.68;;;1.00;;
78489;SDS011;67776;52.012;4.736;2023-03-11T05:17:41;3.75;;;0.90;;
78489;SDS011;67776;52.012;4.736;2023-03-11T05:20:07;3.93;;;1.00;;
78489;SDS011;67776;52.012;4.736;2023-03-11T05:22:36;4.38;;;1.10;;
78489;SDS011;67776;52.012;4.736;2023-03-11T05:25:02;5.73;;;1.10;;
78489;SDS011;67776;52.012;4.736;2023-03-11T05:27:28;6.17;;;0.97;;
78489;SDS011;67776;52.012;4.736;2023-03-11T05:29:53;5.30;;;0.80;;
78489;SDS011;67776;52.012;4.736;2023-03-11T05:32:21;3.83;;;1.10;;
78489;SDS011;67776;52.012;4.736;2023-03-11T05:34:47;3.53;;;0.90;;
78489;SDS011;67776;52.012;4.736;2023-03-11T05:37:12;6.10;;;1.00;;
78489;SDS011;67776;52.012;4.736;2023-03-11T05:39:38;2.90;;;0.80;;
78489;SDS011;67776;52.012;4.736;2023-03-11T05:42:03;3.73;;;1.03;;
78489;SDS011;67776;52.012;4.736;2023-03-11T05:44:30;5.93;;;1.00;;
78489;SDS011;67776;52.012;4.736;2023-03-11T05:46:56;4.50;;;1.00;;
78489;SDS011;67776;52.012;4.736;2023-03-11T05:49:21;7.10;;;1.10;;
78489;SDS011;67776;52.012;4.736;2023-03-11T05:51:47;5.00;;;1.00;;
78489;SDS011;67776;52.012;4.736;2023-03-11T05:54:13;7.05;;;1.23;;
78489;SDS011;67776;52.012;4.736;2023-03-11T05:56:42;5.63;;;1.08;;
78489;SDS011;67776;52.012;4.736;2023-03-11T05:59:08;4.40;;;1.45;;
78489;SDS011;67776;52.012;4.736;2023-03-11T06:01:34;5.65;;;1.52;;
78489;SDS011;67776;52.012;4.736;2023-03-11T06:04:00;5.23;;;1.30;;
78489;SDS011;67776;52.012;4.736;2023-03-11T06:06:26;3.85;;;1.50;;
78489;SDS011;67776;52.012;4.736;2023-03-11T06:08:52;6.33;;;1.40;;
78489;SDS011;67776;52.012;4.736;2023-03-11T06:11:18;5.47;;;1.80;;
78489;SDS011;67776;52.012;4.736;2023-03-11T06:13:44;5.78;;;1.52;;
78489;SDS011;67776;52.012;4.736;2023-03-11T06:16:09;6.70;;;1.50;;
78489;SDS011;67776;52.012;4.736;2023-03-11T06:18:37;6.13;;;1.42;;
78489;SDS011;67776;52.012;4.736;2023-03-11T06:21:03;3.97;;;1.43;;
78489;SDS011;67776;52.012;4.736;2023-03-11T06:23:29;4.45;;;1.30;;
78489;SDS011;67776;52.012;4.736;2023-03-11T06:25:58;4.80;;;1.27;;
78489;SDS011;67776;52.012;4.736;2023-03-11T06:28:29;5.90;;;1.00;;
78489;SDS011;67776;52.012;4.736;2023-03-11T06:30:55;4.90;;;1.20;;
78489;SDS011;67776;52.012;4.736;2023-03-11T06:33:30;7.22;;;1.40;;
78489;SDS011;67776;52.012;4.736;2023-03-11T06:35:59;4.33;;;1.43;;
78489;SDS011;67776;52.012;4.736;2023-03-11T06:38:25;5.40;;;1.40;;
78489;SDS011;67776;52.012;4.736;2023-03-11T06:40:52;5.03;;;1.50;;
78489;SDS011;67776;52.012;4.736;2023-03-11T06:43:18;5.47;;;1.55;;
78489;SDS011;67776;52.012;4.736;2023-03-11T06:45:43;6.83;;;1.77;;
78489;SDS011;67776;52.012;4.736;2023-03-11T06:48:09;5.88;;;1.35;;
78489;SDS011;67776;52.012;4.736;2023-03-11T06:50:34;5.47;;;1.80;;
78489;SDS011;67776;52.012;4.736;2023-03-11T06:53:00;8.90;;;2.60;;
78489;SDS011;67776;52.012;4.736;2023-03-11T06:55:26;6.47;;;2.10;;
78489;SDS011;67776;52.012;4.736;2023-03-11T06:57:52;7.70;;;2.03;;
78489;SDS011;67776;52.012;4.736;2023-03-11T07:00:17;6.00;;;1.93;;
78489;SDS011;67776;52.012;4.736;2023-03-11T07:02:52;5.50;;;1.70;;
78489;SDS011;67776;52.012;4.736;2023-03-11T07:05:17;9.57;;;2.10;;
78489;SDS011;67776;52.012;4.736;2023-03-11T07:07:43;7.70;;;1.83;;
78489;SDS011;67776;52.012;4.736;2023-03-11T07:10:08;6.90;;;1.87;;
78489;SDS011;67776;52.012;4.736;2023-03-11T07:12:34;6.75;;;1.73;;
78489;SDS011;67776;52.012;4.736;2023-03-11T07:15:00;9.27;;;2.00;;
78489;SDS011;67776;52.012;4.736;2023-03-11T07:17:25;9.07;;;1.70;;
78489;SDS011;67776;52.012;4.736;2023-03-11T07:19:51;7.00;;;1.90;;
78489;SDS011;67776;52.012;4.736;2023-03-11T07:22:17;5.18;;;1.45;;
78489;SDS011;67776;52.012;4.736;2023-03-11T07:24:46;6.97;;;1.80;;
78489;SDS011;67776;52.012;4.736;2023-03-11T07:27:12;6.43;;;1.67;;
78489;SDS011;67776;52.012;4.736;2023-03-11T07:29:38;8.50;;;1.70;;
78489;SDS011;67776;52.012;4.736;2023-03-11T07:32:03;7.07;;;1.67;;
78489;SDS011;67776;52.012;4.736;2023-03-11T07:34:30;8.02;;;1.88;;
78489;SDS011;67776;52.012;4.736;2023-03-11T07:36:56;6.83;;;1.80;;
78489;SDS011;67776;52.012;4.736;2023-03-11T07:39:21;6.67;;;2.53;;
78489;SDS011;67776;52.012;4.736;2023-03-11T07:41:46;5.15;;;1.55;;
78489;SDS011;67776;52.012;4.736;2023-03-11T07:44:12;7.70;;;2.10;;
78489;SDS011;67776;52.012;4.736;2023-03-11T07:46:39;6.45;;;1.92;;
78489;SDS011;67776;52.012;4.736;2023-03-11T07:49:04;3.70;;;1.43;;
78489;SDS011;67776;52.012;4.736;2023-03-11T07:51:31;5.90;;;2.00;;
78489;SDS011;67776;52.012;4.736;2023-03-11T07:53:58;6.45;;;2.00;;
78489;SDS011;67776;52.012;4.736;2023-03-11T07:56:25;9.27;;;1.93;;
78489;SDS011;67776;52.012;4.736;2023-03-11T07:58:56;4.93;;;1.67;;
78489;SDS011;67776;52.012;4.736;2023-03-11T08:01:23;7.78;;;1.70;;
78489;SDS011;67776;52.012;4.736;2023-03-11T08:03:51;5.72;;;1.60;;
78489;SDS011;67776;52.012;4.736;2023-03-11T08:06:27;6.80;;;1.70;;
78489;SDS011;67776;52.012;4.736;2023-03-11T08:08:55;5.43;;;1.70;;
78489;SDS011;67776;52.012;4.736;2023-03-11T08:11:21;7.07;;;1.50;;
78489;SDS011;67776;52.012;4.736;2023-03-11T08:13:47;6.93;;;1.45;;
78489;SDS011;67776;52.012;4.736;2023-03-11T08:16:15;5.55;;;1.60;;
78489;SDS011;67776;52.012;4.736;2023-03-11T08:18:44;5.35;;;1.45;;
78489;SDS011;67776;52.012;4.736;2023-03-11T08:21:11;8.33;;;1.77;;
78489;SDS011;67776;52.012;4.736;2023-03-11T08:23:37;6.60;;;1.80;;
78489;SDS011;67776;52.012;4.736;2023-03-11T08:26:04;6.30;;;1.53;;
78489;SDS011;67776;52.012;4.736;2023-03-11T08:28:31;11.23;;;1.60;;
78489;SDS011;67776;52.012;4.736;2023-03-11T08:30:56;5.60;;;1.55;;
78489;SDS011;67776;52.012;4.736;2023-03-11T08:33:22;10.60;;;1.93;;
78489;SDS011;67776;52.012;4.736;2023-03-11T08:35:47;6.73;;;1.60;;
78489;SDS011;67776;52.012;4.736;2023-03-11T08:38:12;5.93;;;1.60;;
78489;SDS011;67776;52.012;4.736;2023-03-11T08:40:41;5.83;;;1.20;;
78489;SDS011;67776;52.012;4.736;2023-03-11T08:43:06;7.47;;;1.33;;
78489;SDS011;67776;52.012;4.736;2023-03-11T08:45:32;6.93;;;1.43;;
78489;SDS011;67776;52.012;4.736;2023-03-11T08:47:57;7.22;;;1.58;;
78489;SDS011;67776;52.012;4.736;2023-03-11T08:50:23;7.20;;;1.60;;
78489;SDS011;67776;52.012;4.736;2023-03-11T08:52:51;6.40;;;1.97;;
78489;SDS011;67776;52.012;4.736;2023-03-11T08:55:16;5.15;;;1.40;;
78489;SDS011;67776;52.012;4.736;2023-03-11T08:57:49;6.47;;;1.52;;
78489;SDS011;67776;52.012;4.736;2023-03-11T09:00:17;5.75;;;1.50;;
78489;SDS011;67776;52.012;4.736;2023-03-11T09:02:43;6.03;;;1.13;;
78489;SDS011;67776;52.012;4.736;2023-03-11T09:05:08;8.45;;;1.40;;
78489;SDS011;67776;52.012;4.736;2023-03-11T09:07:34;4.10;;;1.00;;
78489;SDS011;67776;52.012;4.736;2023-03-11T09:09:59;4.33;;;1.87;;
78489;SDS011;67776;52.012;4.736;2023-03-11T09:12:25;5.15;;;1.10;;
78489;SDS011;67776;52.012;4.736;2023-03-11T09:14:50;7.10;;;1.53;;
78489;SDS011;67776;52.012;4.736;2023-03-11T09:17:16;4.00;;;1.00;;
78489;SDS011;67776;52.012;4.736;2023-03-11T09:19:41;4.77;;;1.30;;
78489;SDS011;67776;52.012;4.736;2023-03-11T09:22:06;4.47;;;1.10;;
78489;SDS011;67776;52.012;4.736;2023-03-11T09:24:32;7.57;;;1.20;;
78489;SDS011;67776;52.012;4.736;2023-03-11T09:26:58;6.60;;;1.13;;
78489;SDS011;67776;52.012;4.736;2023-03-11T09:29:30;5.47;;;1.00;;
78489;SDS011;67776;52.012;4.736;2023-03-11T09:31:55;4.80;;;1.02;;
78489;SDS011;67776;52.012;4.736;2023-03-11T09:34:21;5.90;;;1.20;;
78489;SDS011;67776;52.012;4.736;2023-03-11T09:36:47;4.28;;;1.10;;
78489;SDS011;67776;52.012;4.736;2023-03-11T09:39:12;5.20;;;1.20;;
78489;SDS011;67776;52.012;4.736;2023-03-11T09:41:57;4.00;;;1.00;;
78489;SDS011;67776;52.012;4.736;2023-03-11T09:44:42;6.83;;;1.13;;
78489;SDS011;67776;52.012;4.736;2023-03-11T09:52:39;4.95;;;1.20;;
78489;SDS011;67776;52.012;4.736;2023-03-11T09:57:59;3.97;;;1.23;;
78489;SDS011;67776;52.012;4.736;2023-03-11T10:00:28;5.97;;;1.10;;
78489;SDS011;67776;52.012;4.736;2023-03-11T10:02:54;6.60;;;1.10;;
78489;SDS011;67776;52.012;4.736;2023-03-11T10:05:21;3.85;;;1.00;;
78489;SDS011;67776;52.012;4.736;2023-03-11T10:07:55;4.78;;;0.95;;
78489;SDS011;67776;52.012;4.736;2023-03-11T10:10:37;5.93;;;0.97;;
78489;SDS011;67776;52.012;4.736;2023-03-11T10:13:14;7.00;;;1.02;;
78489;SDS011;67776;52.012;4.736;2023-03-11T10:16:21;5.00;;;0.98;;
78489;SDS011;67776;52.012;4.736;2023-03-11T10:21:24;6.47;;;0.90;;
78489;SDS011;67776;52.012;4.736;2023-03-11T10:26:48;4.55;;;0.93;;
78489;SDS011;67776;52.012;4.736;2023-03-11T10:29:24;3.85;;;0.93;;
78489;SDS011;67776;52.012;4.736;2023-03-11T10:32:08;5.28;;;1.15;;
78489;SDS011;67776;52.012;4.736;2023-03-11T10:37:17;3.47;;;0.93;;
78489;SDS011;67776;52.012;4.736;2023-03-11T10:39:47;4.35;;;0.93;;
78489;SDS011;67776;52.012;4.736;2023-03-11T10:42:14;4.63;;;0.83;;
78489;SDS011;67776;52.012;4.736;2023-03-11T10:44:43;4.72;;;1.10;;
78489;SDS011;67776;52.012;4.736;2023-03-11T10:47:11;8.00;;;1.23;;
78489;SDS011;67776;52.012;4.736;2023-03-11T10:49:42;3.78;;;1.02;;
78489;SDS011;67776;52.012;4.736;2023-03-11T10:52:07;3.43;;;1.10;;
78489;SDS011;67776;52.012;4.736;2023-03-11T10:54:34;4.40;;;1.10;;
78489;SDS011;67776;52.012;4.736;2023-03-11T10:57:08;5.68;;;1.10;;
78489;SDS011;67776;52.012;4.736;2023-03-11T10:59:47;5.28;;;1.10;;
78489;SDS011;67776;52.012;4.736;2023-03-11T11:02:22;4.68;;;1.00;;
78489;SDS011;67776;52.012;4.736;2023-03-11T11:05:37;4.67;;;1.23;;
78489;SDS011;67776;52.012;4.736;2023-03-11T11:07:51;6.07;;;1.00;;
78489;SDS011;67776;52.012;4.736;2023-03-11T11:10:28;5.70;;;1.20;;
78489;SDS011;67776;52.012;4.736;2023-03-11T11:15:40;5.00;;;1.20;;
78489;SDS011;67776;52.012;4.736;2023-03-11T11:21:08;6.10;;;1.13;;
78489;SDS011;67776;52.012;4.736;2023-03-11T11:23:36;8.43;;;1.52;;
78489;SDS011;67776;52.012;4.736;2023-03-11T11:26:04;10.13;;;1.52;;
78489;SDS011;67776;52.012;4.736;2023-03-11T11:31:40;4.60;;;1.20;;
78489;SDS011;67776;52.012;4.736;2023-03-11T11:34:29;7.18;;;1.30;;
78489;SDS011;67776;52.012;4.736;2023-03-11T11:36:57;5.15;;;1.50;;
78489;SDS011;67776;52.012;4.736;2023-03-11T11:39:26;8.07;;;1.25;;
78489;SDS011;67776;52.012;4.736;2023-03-11T11:41:54;5.38;;;1.40;;
78489;SDS011;67776;52.012;4.736;2023-03-11T11:44:27;5.33;;;1.40;;
78489;SDS011;67776;52.012;4.736;2023-03-11T11:46:58;5.82;;;1.80;;
78489;SDS011;67776;52.012;4.736;2023-03-11T11:49:33;5.82;;;1.58;;
78489;SDS011;67776;52.012;4.736;2023-03-11T11:54:38;4.00;;;1.20;;
78489;SDS011;67776;52.012;4.736;2023-03-11T11:57:15;7.03;;;1.60;;
78489;SDS011;67776;52.012;4.736;2023-03-11T11:59:43;5.45;;;1.70;;
78489;SDS011;67776;52.012;4.736;2023-03-11T12:07:58;5.57;;;2.05;;
78489;SDS011;67776;52.012;4.736;2023-03-11T12:10:41;7.03;;;1.80;;
78489;SDS011;67776;52.012;4.736;2023-03-11T12:13:23;4.47;;;1.67;;
78489;SDS011;67776;52.012;4.736;2023-03-11T12:15:58;7.18;;;1.88;;
78489;SDS011;67776;52.012;4.736;2023-03-11T12:18:35;6.90;;;1.85;;
78489;SDS011;67776;52.012;4.736;2023-03-11T12:21:14;6.03;;;1.70;;
78489;SDS011;67776;52.012;4.736;2023-03-11T12:24:44;4.63;;;1.50;;
78489;SDS011;67776;52.012;4.736;2023-03-11T12:26:50;6.88;;;2.17;;
78489;SDS011;67776;52.012;4.736;2023-03-11T12:29:23;15.60;;;2.67;;
78489;SDS011;67776;52.012;4.736;2023-03-11T12:31:52;8.85;;;1.83;;
78489;SDS011;67776;52.012;4.736;2023-03-11T12:34:22;7.28;;;2.13;;
78489;SDS011;67776;52.012;4.736;2023-03-11T12:36:52;5.80;;;1.80;;
78489;SDS011;67776;52.012;4.736;2023-03-11T12:39:23;6.68;;;2.28;;
78489;SDS011;67776;52.012;4.736;2023-03-11T12:44:41;7.30;;;1.60;;
78489;SDS011;67776;52.012;4.736;2023-03-11T12:49:39;5.13;;;1.50;;
78489;SDS011;67776;52.012;4.736;2023-03-11T12:54:40;7.28;;;1.70;;
78489;SDS011;67776;52.012;4.736;2023-03-11T13:07:35;5.93;;;1.55;;
78489;SDS011;67776;52.012;4.736;2023-03-11T13:15:52;6.43;;;1.60;;
78489;SDS011;67776;52.012;4.736;2023-03-11T13:18:24;5.40;;;1.80;;
78489;SDS011;67776;52.012;4.736;2023-03-11T13:21:01;5.68;;;1.50;;
78489;SDS011;67776;52.012;4.736;2023-03-11T13:23:29;4.70;;;1.53;;
78489;SDS011;67776;52.012;4.736;2023-03-11T13:26:05;6.20;;;1.38;;
78489;SDS011;67776;52.012;4.736;2023-03-11T13:32:08;5.03;;;1.33;;
78489;SDS011;67776;52.012;4.736;2023-03-11T13:37:23;6.17;;;1.40;;
78489;SDS011;67776;52.012;4.736;2023-03-11T13:45:33;3.72;;;1.30;;
78489;SDS011;67776;52.012;4.736;2023-03-11T13:48:22;3.67;;;1.38;;
78489;SDS011;67776;52.012;4.736;2023-03-11T13:51:19;3.93;;;1.30;;
78489;SDS011;67776;52.012;4.736;2023-03-11T13:53:53;5.78;;;1.30;;
78489;SDS011;67776;52.012;4.736;2023-03-11T13:56:26;5.78;;;1.20;;
78489;SDS011;67776;52.012;4.736;2023-03-11T13:59:13;5.80;;;1.42;;
78489;SDS011;67776;52.012;4.736;2023-03-11T14:01:56;4.15;;;1.20;;
78489;SDS011;67776;52.012;4.736;2023-03-11T14:04:29;4.87;;;1.10;;
78489;SDS011;67776;52.012;4.736;2023-03-11T14:07:45;4.97;;;1.52;;
78489;SDS011;67776;52.012;4.736;2023-03-11T14:12:35;2.22;;;1.00;;
78489;SDS011;67776;52.012;4.736;2023-03-11T14:15:01;4.80;;;1.10;;
78489;SDS011;67776;52.012;4.736;2023-03-11T14:17:31;4.03;;;1.08;;
78489;SDS011;67776;52.012;4.736;2023-03-11T14:20:01;3.78;;;0.93;;
78489;SDS011;67776;52.012;4.736;2023-03-11T14:22:31;2.90;;;0.90;;
78489;SDS011;67776;52.012;4.736;2023-03-11T14:25:00;4.10;;;1.30;;
78489;SDS011;67776;52.012;4.736;2023-03-11T14:27:32;7.47;;;0.95;;
78489;SDS011;67776;52.012;4.736;2023-03-11T14:29:57;5.23;;;0.80;;
78489;SDS011;67776;52.012;4.736;2023-03-11T14:32:30;4.87;;;0.90;;
78489;SDS011;67776;52.012;4.736;2023-03-11T14:34:57;3.17;;;1.00;;
78489;SDS011;67776;52.012;4.736;2023-03-11T14:37:30;3.67;;;1.00;;
78489;SDS011;67776;52.012;4.736;2023-03-11T14:39:57;2.85;;;0.90;;
78489;SDS011;67776;52.012;4.736;2023-03-11T14:42:26;3.72;;;1.25;;
78489;SDS011;67776;52.012;4.736;2023-03-11T14:45:03;6.07;;;1.10;;
78489;SDS011;67776;52.012;4.736;2023-03-11T14:50:14;3.97;;;1.00;;
78489;SDS011;67776;52.012;4.736;2023-03-11T14:55:44;4.10;;;0.90;;
78489;SDS011;67776;52.012;4.736;2023-03-11T15:06:11;4.50;;;1.30;;
78489;SDS011;67776;52.012;4.736;2023-03-11T15:09:02;4.93;;;1.30;;
78489;SDS011;67776;52.012;4.736;2023-03-11T15:11:42;5.28;;;1.20;;
78489;SDS011;67776;52.012;4.736;2023-03-11T15:14:27;6.68;;;1.40;;
78489;SDS011;67776;52.012;4.736;2023-03-11T15:17:15;5.27;;;1.20;;
78489;SDS011;67776;52.012;4.736;2023-03-11T15:19:40;5.60;;;1.10;;
78489;SDS011;67776;52.012;4.736;2023-03-11T15:25:14;5.63;;;1.30;;
78489;SDS011;67776;52.012;4.736;2023-03-11T15:27:41;4.73;;;1.10;;
78489;SDS011;67776;52.012;4.736;2023-03-11T15:30:23;4.07;;;1.10;;
78489;SDS011;67776;52.012;4.736;2023-03-11T15:32:50;6.85;;;1.42;;
78489;SDS011;67776;52.012;4.736;2023-03-11T15:37:44;4.82;;;1.10;;
78489;SDS011;67776;52.012;4.736;2023-03-11T15:40:17;4.95;;;1.20;;
78489;SDS011;67776;52.012;4.736;2023-03-11T15:42:49;3.72;;;1.00;;
78489;SDS011;67776;52.012;4.736;2023-03-11T15:45:35;5.68;;;1.35;;
78489;SDS011;67776;52.012;4.736;2023-03-11T15:48:00;6.03;;;1.00;;
78489;SDS011;67776;52.012;4.736;2023-03-11T15:50:26;5.07;;;1.20;;
78489;SDS011;67776;52.012;4.736;2023-03-11T15:52:54;3.47;;;1.00;;
78489;SDS011;67776;52.012;4.736;2023-03-11T15:55:21;3.78;;;0.88;;
78489;SDS011;67776;52.012;4.736;2023-03-11T15:57:48;3.30;;;1.00;;
78489;SDS011;67776;52.012;4.736;2023-03-11T16:00:16;2.80;;;0.90;;
78489;SDS011;67776;52.012;4.736;2023-03-11T16:02:47;4.73;;;1.03;;
78489;SDS011;67776;52.012;4.736;2023-03-11T16:05:15;4.07;;;0.95;;
78489;SDS011;67776;52.012;4.736;2023-03-11T16:07:44;2.72;;;0.95;;
78489;SDS011;67776;52.012;4.736;2023-03-11T16:10:11;2.83;;;0.80;;
78489;SDS011;67776;52.012;4.736;2023-03-11T16:12:38;3.53;;;1.00;;
78489;SDS011;67776;52.012;4.736;2023-03-11T16:15:04;3.93;;;1.00;;
78489;SDS011;67776;52.012;4.736;2023-03-11T16:17:30;3.40;;;0.75;;
78489;SDS011;67776;52.012;4.736;2023-03-11T16:19:56;2.28;;;0.80;;
78489;SDS011;67776;52.012;4.736;2023-03-11T16:22:29;5.60;;;1.10;;
78489;SDS011;67776;52.012;4.736;2023-03-11T16:24:58;4.03;;;0.98;;
78489;SDS011;67776;52.012;4.736;2023-03-11T16:27:26;3.72;;;0.80;;
78489;SDS011;67776;52.012;4.736;2023-03-11T16:29:52;3.60;;;0.93;;
78489;SDS011;67776;52.012;4.736;2023-03-11T16:32:17;5.20;;;1.00;;
78489;SDS011;67776;52.012;4.736;2023-03-11T16:34:42;7.28;;;1.10;;